Bovey, MN (55709)

12:07 AM CST on February 14, 2016 (GMT -0600)
Grand Rapids | | Change Station
CLOSE
Current Station
Personal Weather Station
Location: Grand Rapids, MN
Elevation: 1293 ft
Nearby Weather Stations

Elev 1293 ft 47.24 °N, 93.49 °W | Updated 5 seconds ago

Mostly Cloudy
Mostly Cloudy
-3.7 °F
Feels Like -4 °F
N
2.3
Wind Variable Wind from SSW
Gusts 2.3 mph

Today
High -- | Low -- °F
--% Chance of Precip.
Yesterday
High -- | Low -- °F
Precip. -- in
Pressure 30.20 in
Visibility 10.0 miles
Clouds Clear
Windchill -4 °F
Dew Point -6 °F
Humidity 64%
Rainfall 0.00 in
Snow Depth Not available.
7:20 AM 5:35 PM
Waxing Crescent, 38% visible
METAR KGPZ 140555Z AUTO 15006KT 10SM CLR M19/M26 A3020 RMK AO1 11140 21190 411301310 57017
Pressure 30.20 in
Visibility 10.0 miles
Clouds Clear
Windchill -4 °F
Dew Point -6 °F
Humidity 64%
Rainfall 0.00 in
Snow Depth Not available.
7:20 AM 5:35 PM
Waxing Crescent, 38% visible
METAR KGPZ 140555Z AUTO 15006KT 10SM CLR M19/M26 A3020 RMK AO1 11140 21190 411301310 57017

10-Day Weather Forecast

Almanac

Astronomy

Feb. 14, 2016 Rise Set
Actual Time
Civil Twilight
Nautical Twilight
Astronomical Twilight
Moon
Length of Visible Light
Length of Day
Tomorrow will be .
, % of the Moon is Illuminated

Today's Extremes

State Highs State Lows

Community

WunderPhotos

Upload Photos

1,892,752 photos uploaded!

WunderBlog® & News

Nearby

Air Quality

  Air Quality AQ Index Pollutant
Not available.

Snow Depth

Station Depth Elevation

Earthquake Activity

City Distance Mag. Time & Date
Minimum magnitude displayed is 2.5.

Coastal Water Temperatures

Place Temperature

Stations

Nearby Weather Stations

Station Location Temp. Windchill Dew Point Humidity Wind Precip. Elev Updated Type
                   

Watches & Warnings

There are currently no watches in effect.